Falcon, MO (65470)

1:27 AM CDT on September 05, 2015 (GMT -0500)
Evening Shade, NW Texas Cnty, MO | | Change Station
CLOSE
Current Station
Personal Weather Station
Location: Plato, MO
Elevation: 1375 ft
Nearby Weather Stations

Elev 1375 ft 37.56 °N, 92.14 °W | Updated 23 seconds ago

Clear
Clear
75.9 °F
Feels Like 76 °F
N
0.0
Wind Variable Wind from East
Gusts 2.5 mph

Today
High -- | Low -- °F
--% Chance of Precip.
Yesterday
High -- | Low -- °F
Precip. -- in
6:42 AM 7:32 PM
Waning Gibbous, 52% visible
Pressure 30.02 in
Visibility 10.0 miles
Clouds Clear
Heat Index 76 °F
Dew Point 72 °F
Humidity 87%
Rainfall 0.00 in
Snow Depth Not available.
UV 0.0 out of 12
Pollen 11.10 out of 12
Air Quality Not available.
Flu Activity Not available.
METAR KTBN 050558Z AUTO 15006KT 10SM CLR 23/21 A3005 RMK AO2 SLP166 T02250212 10289 20224 403240195 52005
Pressure 30.02 in
Visibility 10.0 miles
Clouds Clear
Heat Index 76 °F
Dew Point 72 °F
Humidity 87%
Rainfall 0.00 in
Snow Depth Not available.
UV 0.0 out of 12
Pollen 11.10 out of 12
Air Quality Not available.
Flu Activity Not available.
METAR KTBN 050558Z AUTO 15006KT 10SM CLR 23/21 A3005 RMK AO2 SLP166 T02250212 10289 20224 403240195 52005

10-Day Weather Forecast

×

Almanac

Astronomy

Sep. 05, 2015 Rise Set
Actual Time
Civil Twilight
Nautical Twilight
Astronomical Twilight
Moon
Length of Visible Light
Length of Day
Tomorrow will be .
, % of the Moon is Illuminated

Today's Extremes

State Highs State Lows

Community

WunderPhotos

Upload Photos

1,852,430 photos uploaded!

WunderBlogs® & News

Nearby

Air Quality

  Air Quality AQ Index Pollutant
Not available.

Snow Depth

Station Depth Elevation

Earthquake Activity

City Distance Mag. Time & Date
Minimum magnitude displayed is 2.5.

Coastal Water Temperatures

Place Temperature

Stations

Nearby Weather Stations

Station Location Temp. Windchill Dew Point Humidity Wind Precip. Elev Updated Type